createdAt,value
2023-03-29T00:00:16.688Z,101909.94
2023-03-29T00:01:36.143Z,101915.97
2023-03-29T00:02:38.083Z,101900.75
2023-03-29T00:03:40.346Z,101909.78
2023-03-29T00:04:42.026Z,101908.78
2023-03-29T00:05:44.772Z,101907.31
2023-03-29T00:06:47.845Z,101902.00
2023-03-29T00:08:01.641Z,101898.47
2023-03-29T00:09:05.727Z,101901.28
2023-03-29T00:10:09.960Z,101897.03
2023-03-29T00:11:12.497Z,101899.78
2023-03-29T00:12:14.016Z,101902.78
2023-03-29T00:13:15.761Z,101894.53
2023-03-29T00:14:17.178Z,101892.19
2023-03-29T00:15:19.277Z,101893.19
2023-03-29T00:16:20.895Z,101889.63
2023-03-29T00:17:22.682Z,101876.84
2023-03-29T00:18:24.219Z,101882.34
2023-03-29T00:19:25.894Z,101873.53
2023-03-29T00:20:28.770Z,101868.22
2023-03-29T00:21:30.639Z,101874.38
2023-03-29T00:22:32.145Z,101878.31
2023-03-29T00:23:33.580Z,101869.56
2023-03-29T00:24:35.219Z,101871.16
2023-03-29T00:25:36.644Z,101866.66
2023-03-29T00:26:38.092Z,101854.09
2023-03-29T00:27:40.353Z,101870.16
2023-03-29T00:28:41.976Z,101864.81
2023-03-29T00:29:43.472Z,101861.09
2023-03-29T00:30:45.455Z,101865.06
2023-03-29T00:31:53.577Z,101865.06
2023-03-29T00:32:54.956Z,101863.25
2023-03-29T00:33:56.729Z,101861.41
2023-03-29T00:35:00.770Z,101862.41
2023-03-29T00:36:03.910Z,101855.19
2023-03-29T00:37:08.606Z,101861.47
2023-03-29T00:38:10.071Z,101856.78
2023-03-29T00:39:11.472Z,101854.16
2023-03-29T00:40:13.459Z,101854.09
2023-03-29T00:41:15.165Z,101858.53
2023-03-29T00:42:17.493Z,101856.72
2023-03-29T00:43:19.074Z,101862.22
2023-03-29T00:45:11.852Z,101858.91
2023-03-29T00:46:13.443Z,101860.97
2023-03-29T00:47:16.230Z,101859.41
2023-03-29T00:48:21.921Z,101857.50
2023-03-29T00:49:23.398Z,101852.22
2023-03-29T00:50:32.207Z,101847.78
2023-03-29T00:51:36.634Z,101840.91
2023-03-29T00:52:39.613Z,101841.78
2023-03-29T00:53:49.128Z,101848.59
2023-03-29T00:54:55.353Z,101834.34
2023-03-29T00:56:02.385Z,101840.53
2023-03-29T00:57:04.780Z,101836.03
2023-03-29T00:58:08.682Z,101826.09
2023-03-29T00:59:13.761Z,101832.50
2023-03-29T01:00:20.768Z,101832.72
2023-03-29T01:01:34.104Z,101836.25
2023-03-29T01:02:39.805Z,101834.44
2023-03-29T01:03:46.961Z,101822.09
2023-03-29T01:04:57.909Z,101825.78
2023-03-29T01:06:09.111Z,101831.13
2023-03-29T01:07:25.467Z,101822.34
2023-03-29T01:08:32.637Z,101824.03
2023-03-29T01:09:38.102Z,101819.66
2023-03-29T01:10:49.542Z,101819.81
2023-03-29T01:11:56.940Z,101820.88
2023-03-29T01:13:04.793Z,101816.44
2023-03-29T01:14:15.242Z,101813.78
2023-03-29T01:15:21.110Z,101806.81
2023-03-29T01:16:25.715Z,101809.59
2023-03-29T01:17:27.229Z,101816.16
2023-03-29T01:18:31.317Z,101809.91
2023-03-29T01:19:40.297Z,101803.91
2023-03-29T01:21:15.225Z,101800.38
2023-03-29T01:22:29.586Z,101792.97
2023-03-29T01:24:12.484Z,101795.81
2023-03-29T01:25:26.167Z,101796.84
2023-03-29T01:26:42.840Z,101784.28
2023-03-29T01:28:06.295Z,101784.06
2023-03-29T01:29:12.728Z,101792.97
2023-03-29T01:30:37.285Z,101783.81
2023-03-29T01:31:44.260Z,101783.72
2023-03-29T01:32:52.401Z,101780.13
2023-03-29T01:34:32.630Z,101785.88
2023-03-29T01:35:45.724Z,101779.47
2023-03-29T01:37:00.289Z,101775.66
2023-03-29T01:38:09.538Z,101780.00
2023-03-29T01:39:11.084Z,101769.47
2023-03-29T01:40:12.627Z,101764.00
2023-03-29T01:41:14.398Z,101769.25
2023-03-29T01:42:39.689Z,101770.13
2023-03-29T01:43:59.059Z,101764.09
2023-03-29T01:45:23.452Z,101766.72
2023-03-29T01:46:43.114Z,101760.22
2023-03-29T01:48:24.574Z,101760.06
2023-03-29T01:49:54.360Z,101763.75
2023-03-29T01:51:01.247Z,101760.06
2023-03-29T01:52:29.279Z,101759.41
2023-03-29T01:53:46.996Z,101752.16
2023-03-29T01:54:56.031Z,101753.16
2023-03-29T01:56:04.491Z,101756.69
2023-03-29T01:57:10.222Z,101725.78
2023-03-29T01:58:14.287Z,101746.72
2023-03-29T01:59:22.570Z,101749.84
2023-03-29T02:00:27.607Z,101735.41
2023-03-29T02:01:35.061Z,101739.94
2023-03-29T02:02:41.554Z,101741.50
2023-03-29T02:03:49.701Z,101734.22
2023-03-29T02:04:54.132Z,101740.44
2023-03-29T02:05:58.048Z,101734.03
2023-03-29T02:07:00.679Z,101738.22
2023-03-29T02:08:05.683Z,101729.03
2023-03-29T02:09:07.444Z,101731.03
2023-03-29T02:10:11.358Z,101732.63
2023-03-29T02:11:13.517Z,101728.19
2023-03-29T02:12:16.500Z,101738.09
2023-03-29T02:13:19.157Z,101728.38
2023-03-29T02:14:21.179Z,101727.16
2023-03-29T02:15:23.493Z,101722.66
2023-03-29T02:16:24.998Z,101727.38
2023-03-29T02:17:28.085Z,101730.81
2023-03-29T02:18:30.557Z,101721.91
2023-03-29T02:19:32.487Z,101727.22
2023-03-29T02:20:38.951Z,101725.44
2023-03-29T02:21:51.815Z,101721.72
2023-03-29T02:23:18.035Z,101725.34
2023-03-29T02:24:23.511Z,101720.69
2023-03-29T02:25:25.883Z,101718.84
2023-03-29T02:26:28.958Z,101716.09
2023-03-29T02:27:30.583Z,101720.50
2023-03-29T02:28:33.211Z,101708.94
2023-03-29T02:29:34.648Z,101710.75
2023-03-29T02:30:54.587Z,101694.53
2023-03-29T02:32:26.406Z,101713.59
2023-03-29T02:33:38.987Z,101705.53
2023-03-29T02:34:49.228Z,101699.06
2023-03-29T02:36:00.063Z,101699.44
2023-03-29T02:37:06.692Z,101698.53
2023-03-29T02:38:11.368Z,101695.00
2023-03-29T02:39:15.370Z,101698.41
2023-03-29T02:40:18.015Z,101696.66
2023-03-29T02:41:20.701Z,101694.09
2023-03-29T02:42:23.113Z,101699.47
2023-03-29T02:43:27.441Z,101693.09
2023-03-29T02:44:32.031Z,101690.28
2023-03-29T02:45:36.476Z,101690.78
2023-03-29T02:46:38.375Z,101693.63
2023-03-29T02:47:46.402Z,101691.81
2023-03-29T02:48:50.736Z,101682.88
2023-03-29T02:49:52.976Z,101688.22
2023-03-29T02:50:58.317Z,101687.25
2023-03-29T02:52:08.886Z,101679.94
2023-03-29T02:53:17.015Z,101678.47
2023-03-29T02:54:20.485Z,101678.28
2023-03-29T02:55:24.748Z,101672.28
2023-03-29T02:56:26.154Z,101675.03
2023-03-29T02:57:28.688Z,101677.66
2023-03-29T02:58:31.600Z,101677.81
2023-03-29T02:59:33.506Z,101679.44
2023-03-29T03:00:38.194Z,101679.94
2023-03-29T03:01:42.618Z,101669.94
2023-03-29T03:02:44.435Z,101665.59
2023-03-29T03:03:47.835Z,101674.38
2023-03-29T03:04:49.991Z,101665.63
2023-03-29T03:05:52.446Z,101668.19
2023-03-29T03:06:53.949Z,101657.09
2023-03-29T03:07:55.337Z,101664.50
2023-03-29T03:08:56.754Z,101667.19
2023-03-29T03:09:58.553Z,101664.38
2023-03-29T03:11:00.154Z,101659.56
2023-03-29T03:12:01.832Z,101661.72
2023-03-29T03:13:03.559Z,101664.13
2023-03-29T03:14:06.712Z,101654.66
2023-03-29T03:15:08.706Z,101658.72
2023-03-29T03:16:10.244Z,101656.88
2023-03-29T03:17:11.832Z,101662.78
2023-03-29T03:18:13.267Z,101658.16
2023-03-29T03:19:15.515Z,101657.03
2023-03-29T03:20:16.913Z,101653.31
2023-03-29T03:21:18.806Z,101661.34
2023-03-29T03:22:20.385Z,101648.81
2023-03-29T03:23:22.832Z,101659.34
2023-03-29T03:24:24.302Z,101651.09
2023-03-29T03:25:25.753Z,101651.75
2023-03-29T03:26:29.910Z,101658.09
2023-03-29T03:27:31.398Z,101651.53
2023-03-29T03:28:33.125Z,101648.44
2023-03-29T03:29:36.371Z,101651.97
2023-03-29T03:30:38.525Z,101645.47
2023-03-29T03:31:42.936Z,101648.03
2023-03-29T03:32:44.707Z,101643.59
2023-03-29T03:33:46.562Z,101647.13
2023-03-29T03:34:47.976Z,101643.59
2023-03-29T03:35:49.595Z,101655.88
2023-03-29T03:36:51.007Z,101654.81
2023-03-29T03:37:52.469Z,101645.06
2023-03-29T03:38:53.911Z,101650.19
2023-03-29T03:39:55.360Z,101642.25
2023-03-29T03:40:57.452Z,101641.97
2023-03-29T03:41:58.866Z,101644.63
2023-03-29T03:43:00.526Z,101643.94
2023-03-29T03:44:01.955Z,101638.34
2023-03-29T03:45:03.508Z,101640.94
2023-03-29T03:46:05.439Z,101639.13
2023-03-29T03:47:07.843Z,101638.25
2023-03-29T03:48:09.637Z,101637.31
2023-03-29T03:49:11.137Z,101635.47
2023-03-29T03:50:13.702Z,101641.69
2023-03-29T03:51:15.329Z,101635.59
2023-03-29T03:52:17.766Z,101639.19
2023-03-29T03:53:20.074Z,101644.66
2023-03-29T03:54:21.487Z,101637.03
2023-03-29T03:55:23.862Z,101638.34
2023-03-29T03:56:25.794Z,101641.03
2023-03-29T03:57:27.494Z,101635.75
2023-03-29T03:58:28.902Z,101630.13
2023-03-29T03:59:30.514Z,101635.75
2023-03-29T04:00:33.267Z,101631.19
2023-03-29T04:01:35.433Z,101637.34
2023-03-29T04:02:37.247Z,101633.59
2023-03-29T04:03:39.166Z,101628.75
2023-03-29T04:04:41.281Z,101616.91
2023-03-29T04:05:47.086Z,101625.59
2023-03-29T04:06:48.627Z,101639.81
2023-03-29T04:07:50.032Z,101631.03
2023-03-29T04:08:51.589Z,101627.44
2023-03-29T04:09:53.076Z,101630.84
2023-03-29T04:10:56.750Z,101629.25
2023-03-29T04:11:59.914Z,101631.19
2023-03-29T04:13:02.393Z,101624.69
2023-03-29T04:14:04.310Z,101626.44
2023-03-29T04:15:07.040Z,101621.84
2023-03-29T04:16:08.673Z,101624.53
2023-03-29T04:17:10.102Z,101624.28
2023-03-29T04:18:12.382Z,101627.88
2023-03-29T04:19:14.299Z,101623.44
2023-03-29T04:20:16.540Z,101621.47
2023-03-29T04:21:19.458Z,101620.53
2023-03-29T04:22:22.657Z,101628.41
2023-03-29T04:23:24.211Z,101626.63
2023-03-29T04:24:25.770Z,101628.41
2023-03-29T04:25:27.212Z,101624.84
2023-03-29T04:26:28.618Z,101624.78
2023-03-29T04:27:30.021Z,101626.50
2023-03-29T04:28:31.406Z,101624.66
2023-03-29T04:29:32.809Z,101624.78
2023-03-29T04:30:34.396Z,101629.22
2023-03-29T04:31:35.900Z,101624.78
2023-03-29T04:32:37.766Z,101597.78
2023-03-29T04:33:39.435Z,101626.72
2023-03-29T04:34:40.895Z,101622.09
2023-03-29T04:35:42.529Z,101628.41
2023-03-29T04:36:44.053Z,101623.69
2023-03-29T04:37:45.505Z,101618.31
2023-03-29T04:38:47.893Z,101623.06
2023-03-29T04:39:50.150Z,101615.66
2023-03-29T04:40:51.580Z,101616.69
2023-03-29T04:41:52.987Z,101616.13
2023-03-29T04:42:54.542Z,101615.28
2023-03-29T04:43:56.192Z,101612.72
2023-03-29T04:44:58.398Z,101610.78
2023-03-29T04:45:59.858Z,101616.50
2023-03-29T04:47:01.421Z,101614.44
2023-03-29T04:48:02.953Z,101616.13
2023-03-29T04:49:05.750Z,101615.28
2023-03-29T04:50:08.352Z,101614.28
2023-03-29T04:51:09.804Z,101619.66
2023-03-29T04:52:11.461Z,101618.00
2023-03-29T04:53:12.894Z,101611.59
2023-03-29T04:54:14.310Z,101603.47
2023-03-29T04:55:15.766Z,101606.22
2023-03-29T04:56:17.653Z,101611.28
2023-03-29T04:57:19.110Z,101607.75
2023-03-29T04:58:22.492Z,101598.72
2023-03-29T04:59:25.372Z,101607.59
2023-03-29T05:00:29.350Z,101609.22
2023-03-29T05:01:30.888Z,101615.56
2023-03-29T05:02:33.099Z,101598.81
2023-03-29T05:03:35.519Z,101604.25
2023-03-29T05:04:36.982Z,101598.91
2023-03-29T05:05:38.440Z,101595.50
2023-03-29T05:06:40.730Z,101590.88
2023-03-29T05:07:42.173Z,101596.53
2023-03-29T05:08:44.536Z,101594.88
2023-03-29T05:09:45.990Z,101586.94
2023-03-29T05:10:47.614Z,101577.03
2023-03-29T05:11:49.916Z,101591.81
2023-03-29T05:12:53.897Z,101583.16
2023-03-29T05:13:57.184Z,101592.13
2023-03-29T05:14:58.942Z,101583.13
2023-03-29T05:16:00.778Z,101586.88
2023-03-29T05:17:02.859Z,101587.09
2023-03-29T05:18:04.324Z,101587.16
2023-03-29T05:19:05.811Z,101587.16
2023-03-29T05:20:11.637Z,101587.22
2023-03-29T05:21:13.274Z,101571.97
2023-03-29T05:22:15.236Z,101579.63
2023-03-29T05:23:17.633Z,101576.16
2023-03-29T05:24:20.089Z,101576.38
2023-03-29T05:25:21.891Z,101573.72
2023-03-29T05:26:23.447Z,101575.56
2023-03-29T05:27:25.406Z,101580.09
2023-03-29T05:28:27.113Z,101574.81
2023-03-29T05:29:28.507Z,101577.84
2023-03-29T05:30:29.946Z,101568.59
2023-03-29T05:31:32.540Z,101578.53
2023-03-29T05:32:36.828Z,101573.19
2023-03-29T05:33:38.644Z,101570.50
2023-03-29T05:34:40.163Z,101571.50
2023-03-29T05:35:41.643Z,101570.00
2023-03-29T05:36:45.292Z,101570.31
2023-03-29T05:37:47.273Z,101563.28
2023-03-29T05:38:49.812Z,101566.13
2023-03-29T05:39:51.514Z,101573.34
2023-03-29T05:40:53.046Z,101569.75
2023-03-29T05:41:55.036Z,101562.03
2023-03-29T05:42:56.598Z,101570.38
2023-03-29T05:43:58.168Z,101568.63
2023-03-29T05:44:59.678Z,101570.47
2023-03-29T05:46:01.205Z,101558.97
2023-03-29T05:47:02.640Z,101566.16
2023-03-29T05:48:05.525Z,101556.44
2023-03-29T05:49:07.157Z,101564.56
2023-03-29T05:50:10.229Z,101552.16
2023-03-29T05:51:11.773Z,101557.56
2023-03-29T05:52:14.463Z,101557.84
2023-03-29T05:53:19.461Z,101564.13
2023-03-29T05:54:20.948Z,101562.44
2023-03-29T05:55:22.418Z,101559.97
2023-03-29T05:56:24.261Z,101563.59
2023-03-29T05:57:25.852Z,101561.13
2023-03-29T05:58:28.404Z,101569.25
2023-03-29T05:59:29.902Z,101566.59
2023-03-29T06:00:32.218Z,101566.78
2023-03-29T06:01:34.428Z,101561.47
2023-03-29T06:02:36.634Z,101562.50
2023-03-29T06:03:38.524Z,101558.09
2023-03-29T06:04:40.366Z,101555.53
2023-03-29T06:05:41.759Z,101559.31
2023-03-29T06:06:43.286Z,101549.41
2023-03-29T06:07:45.252Z,101556.78
2023-03-29T06:08:47.745Z,101559.50
2023-03-29T06:09:49.150Z,101558.75
2023-03-29T06:10:51.792Z,101560.66
2023-03-29T06:11:53.615Z,101555.47
2023-03-29T06:12:55.434Z,101546.03
2023-03-29T06:13:57.509Z,101552.28
2023-03-29T06:15:04.648Z,101546.16
2023-03-29T06:16:06.668Z,101554.31
2023-03-29T06:17:08.093Z,101556.22
2023-03-29T06:18:09.863Z,101552.75
2023-03-29T06:19:11.339Z,101546.72
2023-03-29T06:20:14.185Z,101550.44
2023-03-29T06:21:15.590Z,101551.53
2023-03-29T06:22:17.061Z,101545.41
2023-03-29T06:23:19.846Z,101540.97
2023-03-29T06:24:21.314Z,101541.38
2023-03-29T06:25:22.765Z,101547.81
2023-03-29T06:26:24.861Z,101548.88
2023-03-29T06:27:26.155Z,101547.19
2023-03-29T06:28:27.662Z,101540.13
2023-03-29T06:29:29.079Z,101539.38
2023-03-29T06:30:30.480Z,101534.16
2023-03-29T06:31:32.219Z,101536.69
2023-03-29T06:32:34.628Z,101540.31
2023-03-29T06:33:38.006Z,101535.97
2023-03-29T06:34:39.520Z,101543.16
2023-03-29T06:35:43.613Z,101531.22
2023-03-29T06:36:45.777Z,101538.50
2023-03-29T06:37:50.060Z,101534.09
2023-03-29T06:38:52.380Z,101541.59
2023-03-29T06:39:53.859Z,101524.41
2023-03-29T06:41:03.937Z,101540.56
2023-03-29T06:42:20.216Z,101539.88
2023-03-29T06:43:22.923Z,101546.19
2023-03-29T06:44:25.522Z,101534.63
2023-03-29T06:45:29.516Z,101536.38
2023-03-29T06:46:31.640Z,101531.03
2023-03-29T06:47:33.158Z,101538.41
2023-03-29T06:48:34.656Z,101544.72
2023-03-29T06:49:36.202Z,101531.34
2023-03-29T06:50:37.766Z,101532.34
2023-03-29T06:51:40.126Z,101531.44
2023-03-29T06:52:41.843Z,101530.47
2023-03-29T06:53:43.246Z,101525.28
2023-03-29T06:54:44.699Z,101525.56
2023-03-29T06:55:46.124Z,101523.88
2023-03-29T06:56:47.903Z,101519.41
2023-03-29T06:57:49.386Z,101521.16
2023-03-29T06:58:51.487Z,101522.06
2023-03-29T06:59:53.813Z,101527.50
2023-03-29T07:01:00.840Z,101523.06
2023-03-29T07:02:02.757Z,101528.59
2023-03-29T07:03:07.299Z,101520.59
2023-03-29T07:04:09.299Z,101514.50
2023-03-29T07:05:12.050Z,101526.34
2023-03-29T07:06:14.909Z,101524.47
2023-03-29T07:07:22.509Z,101524.53
2023-03-29T07:08:30.873Z,101520.94
2023-03-29T07:09:32.427Z,101521.97
2023-03-29T07:10:39.347Z,101520.16
2023-03-29T07:11:41.617Z,101521.19
2023-03-29T07:12:44.599Z,101518.50
2023-03-29T07:13:46.203Z,101519.69
2023-03-29T07:14:48.448Z,101523.22
2023-03-29T07:15:49.879Z,101523.44
2023-03-29T07:16:52.193Z,101514.22
2023-03-29T07:17:54.382Z,101526.94
2023-03-29T07:18:55.889Z,101523.47
2023-03-29T07:19:57.703Z,101518.13
2023-03-29T07:20:59.227Z,101520.81
2023-03-29T07:22:00.892Z,101518.31
2023-03-29T07:23:02.359Z,101517.31
2023-03-29T07:24:04.737Z,101517.41
2023-03-29T07:25:09.282Z,101526.47
2023-03-29T07:26:11.878Z,101527.44
2023-03-29T07:27:13.317Z,101529.44
2023-03-29T07:28:14.962Z,101524.66
2023-03-29T07:29:16.380Z,101519.34
2023-03-29T07:30:22.084Z,101534.63
2023-03-29T07:31:23.528Z,101533.88
2023-03-29T07:32:25.021Z,101531.28
2023-03-29T07:33:26.639Z,101520.72
2023-03-29T07:34:29.928Z,101517.88
2023-03-29T07:35:32.626Z,101520.53
2023-03-29T07:36:34.864Z,101518.78
2023-03-29T07:37:37.381Z,101519.78
2023-03-29T07:38:38.862Z,101516.28
2023-03-29T07:39:40.344Z,101505.53
2023-03-29T07:40:41.787Z,101506.38
2023-03-29T07:41:43.198Z,101510.09
2023-03-29T07:42:48.906Z,101508.22
2023-03-29T07:43:51.766Z,101507.53
2023-03-29T07:44:54.179Z,101507.44
2023-03-29T07:45:55.973Z,101511.22
2023-03-29T07:46:59.906Z,101505.78
2023-03-29T07:48:02.097Z,101504.94
2023-03-29T07:49:04.264Z,101514.16
2023-03-29T07:50:07.425Z,101501.63
2023-03-29T07:51:08.964Z,101503.47
2023-03-29T07:52:10.509Z,101494.53
2023-03-29T07:53:12.485Z,101500.97
2023-03-29T07:54:13.808Z,101510.03
2023-03-29T07:55:15.425Z,101494.69
2023-03-29T07:56:16.859Z,101500.22
2023-03-29T07:57:18.334Z,101490.25
2023-03-29T07:58:20.185Z,101487.50
2023-03-29T07:59:21.601Z,101492.00
2023-03-29T08:00:24.719Z,101488.44
2023-03-29T08:01:26.429Z,101482.16
2023-03-29T08:02:28.972Z,101488.53
2023-03-29T08:03:30.473Z,101488.47
2023-03-29T08:04:32.221Z,101490.44
2023-03-29T08:05:41.244Z,101486.78
2023-03-29T08:06:43.459Z,101488.59
2023-03-29T08:07:46.715Z,101485.88
2023-03-29T08:08:48.144Z,101495.00
2023-03-29T08:09:49.602Z,101492.31
2023-03-29T08:10:51.865Z,101491.41
2023-03-29T08:11:53.581Z,101493.25
2023-03-29T08:12:55.247Z,101498.63
2023-03-29T08:13:57.495Z,101493.22
2023-03-29T08:14:58.904Z,101500.47
2023-03-29T08:16:00.307Z,101491.38
2023-03-29T08:17:01.758Z,101491.47
2023-03-29T08:18:03.575Z,101500.47
2023-03-29T08:19:05.114Z,101494.97
2023-03-29T08:20:09.694Z,101489.63
2023-03-29T08:21:11.185Z,101490.56
2023-03-29T08:22:12.610Z,101477.91
2023-03-29T08:23:14.039Z,101482.38
2023-03-29T08:24:15.451Z,101481.56
2023-03-29T08:25:17.024Z,101489.75
2023-03-29T08:26:18.658Z,101486.16
2023-03-29T08:27:20.180Z,101488.03
2023-03-29T08:28:22.251Z,101488.03
2023-03-29T08:29:23.752Z,101483.59
2023-03-29T08:30:25.650Z,101475.41
2023-03-29T08:31:27.191Z,101470.88
2023-03-29T08:32:28.744Z,101470.91
2023-03-29T08:33:30.231Z,101465.50
2023-03-29T08:34:31.861Z,101470.00
2023-03-29T08:35:33.419Z,101468.19
2023-03-29T08:36:34.858Z,101464.59
2023-03-29T08:37:37.498Z,101458.22
2023-03-29T08:38:38.918Z,101460.94
2023-03-29T08:39:40.424Z,101459.13
2023-03-29T08:40:42.295Z,101454.63
2023-03-29T08:42:08.831Z,101463.69
2023-03-29T08:43:45.848Z,101452.84
2023-03-29T08:45:02.641Z,101448.31
2023-03-29T08:46:35.083Z,101451.94
2023-03-29T08:47:59.222Z,101454.66
2023-03-29T08:49:04.502Z,101453.75
2023-03-29T08:50:07.476Z,101455.56
2023-03-29T08:51:21.436Z,101455.56
2023-03-29T08:52:40.203Z,101450.16
2023-03-29T08:53:50.457Z,101450.13
2023-03-29T08:54:55.935Z,101456.47
2023-03-29T08:56:01.760Z,101451.94
2023-03-29T08:57:12.879Z,101437.44
2023-03-29T08:58:21.193Z,101436.53
2023-03-29T08:59:31.960Z,101452.84
2023-03-29T09:00:42.821Z,101440.16
2023-03-29T09:01:46.781Z,101439.25
2023-03-29T09:02:53.804Z,101442.81
2023-03-29T09:04:03.215Z,101442.88
2023-03-29T09:05:28.980Z,101441.09
2023-03-29T09:06:30.817Z,101440.16
2023-03-29T09:07:32.544Z,101440.16
2023-03-29T09:08:43.851Z,101437.41
2023-03-29T09:09:45.539Z,101424.69
2023-03-29T09:10:56.880Z,101435.53
2023-03-29T09:12:09.372Z,101430.13
2023-03-29T09:13:23.137Z,101421.84
2023-03-29T09:14:47.683Z,101423.50
2023-03-29T09:15:54.402Z,101428.75
2023-03-29T09:17:07.468Z,101423.16
2023-03-29T09:18:19.119Z,101417.84
2023-03-29T09:19:42.329Z,101422.63
2023-03-29T09:21:00.280Z,101423.53
2023-03-29T09:22:39.177Z,101424.28
2023-03-29T09:24:22.329Z,101417.19
2023-03-29T09:25:53.067Z,101407.41
2023-03-29T09:27:05.159Z,101413.69
2023-03-29T09:28:17.568Z,101426.38
2023-03-29T09:29:31.062Z,101418.97
2023-03-29T09:30:42.787Z,101422.72
2023-03-29T09:31:44.836Z,101424.59
2023-03-29T09:33:12.393Z,101421.72
2023-03-29T09:34:23.564Z,101428.94
2023-03-29T09:35:31.067Z,101423.47
2023-03-29T09:36:45.271Z,101427.84
2023-03-29T09:37:49.044Z,101404.81
2023-03-29T09:38:54.193Z,101407.25
2023-03-29T09:39:57.498Z,101398.16
2023-03-29T09:41:06.638Z,101409.25
2023-03-29T09:42:12.359Z,101411.94
2023-03-29T09:43:18.339Z,101409.47
2023-03-29T09:44:30.886Z,101410.59
2023-03-29T09:45:35.258Z,101401.38
2023-03-29T09:46:44.003Z,101399.56
2023-03-29T09:48:18.297Z,101413.59
2023-03-29T09:49:32.952Z,101403.50
2023-03-29T09:50:41.150Z,101389.19
2023-03-29T09:51:45.027Z,101404.44
2023-03-29T09:52:48.691Z,101399.97
2023-03-29T09:53:50.439Z,101397.91
2023-03-29T09:54:52.174Z,101393.28
2023-03-29T09:55:55.293Z,101396.59
2023-03-29T09:56:56.821Z,101388.91
2023-03-29T09:58:01.978Z,101381.72
2023-03-29T09:59:03.398Z,101397.81
2023-03-29T10:00:06.088Z,101382.00
2023-03-29T10:01:10.327Z,101380.94
2023-03-29T10:02:13.595Z,101385.16
2023-03-29T10:03:27.210Z,101392.09
2023-03-29T10:04:28.634Z,101389.63
2023-03-29T10:05:34.581Z,101390.91
2023-03-29T10:06:38.812Z,101392.41
2023-03-29T10:07:45.531Z,101393.63
2023-03-29T10:08:51.862Z,101378.44
2023-03-29T10:09:55.911Z,101388.22
2023-03-29T10:10:59.475Z,101384.47
2023-03-29T10:12:05.591Z,101380.19
2023-03-29T10:13:13.470Z,101387.13
2023-03-29T10:14:19.479Z,101382.06
2023-03-29T10:15:29.249Z,101378.22
2023-03-29T10:16:38.339Z,101364.72
2023-03-29T10:17:40.988Z,101367.75
2023-03-29T10:18:43.484Z,101363.81
2023-03-29T10:19:52.787Z,101364.78
2023-03-29T10:20:59.923Z,101353.47
2023-03-29T10:22:06.424Z,101356.47
2023-03-29T10:23:09.186Z,101353.84
2023-03-29T10:24:10.636Z,101348.88
2023-03-29T10:25:18.162Z,101353.06
2023-03-29T10:26:19.529Z,101346.13
2023-03-29T10:27:29.402Z,101341.00
2023-03-29T10:28:32.569Z,101350.69
2023-03-29T10:29:38.529Z,101356.44
2023-03-29T10:30:40.206Z,101342.38
2023-03-29T10:31:43.083Z,101339.94
2023-03-29T10:32:44.777Z,101344.13
2023-03-29T10:33:52.455Z,101340.66
2023-03-29T10:34:55.183Z,101349.13
2023-03-29T10:35:58.399Z,101335.38
2023-03-29T10:37:01.984Z,101353.41
2023-03-29T10:38:07.601Z,101347.28
2023-03-29T10:39:13.375Z,101343.41
2023-03-29T10:40:35.205Z,101347.00
2023-03-29T10:41:36.875Z,101342.66
2023-03-29T10:42:47.952Z,101333.44
2023-03-29T10:43:51.626Z,101329.22
2023-03-29T10:44:56.242Z,101329.16
2023-03-29T10:46:08.160Z,101331.69
2023-03-29T10:47:09.590Z,101332.28
2023-03-29T10:48:16.603Z,101317.38
2023-03-29T10:49:20.417Z,101320.47
2023-03-29T10:50:21.840Z,101320.16
2023-03-29T10:51:24.624Z,101326.03
2023-03-29T10:52:26.551Z,101321.13
2023-03-29T10:53:35.390Z,101330.19
2023-03-29T10:54:37.281Z,101329.25
2023-03-29T10:55:54.197Z,101320.78
2023-03-29T10:57:00.327Z,101323.50
2023-03-29T10:58:24.520Z,101315.41
2023-03-29T10:59:29.489Z,101317.66
2023-03-29T11:00:49.154Z,101313.84
2023-03-29T11:02:08.056Z,101316.06
2023-03-29T11:03:20.961Z,101319.56
2023-03-29T11:04:42.075Z,101331.56
2023-03-29T11:05:58.633Z,101324.28
2023-03-29T11:07:22.578Z,101318.53
2023-03-29T11:08:28.435Z,101329.78
2023-03-29T11:09:37.350Z,101321.97
2023-03-29T11:11:00.016Z,101322.66
2023-03-29T11:12:28.541Z,101322.22
2023-03-29T11:14:13.527Z,101324.09
2023-03-29T11:15:43.742Z,101321.88
2023-03-29T11:16:57.154Z,101309.56
2023-03-29T11:17:58.558Z,101311.88
2023-03-29T11:19:06.725Z,101307.69
2023-03-29T11:20:16.288Z,101311.63
2023-03-29T11:21:45.692Z,101317.34
2023-03-29T11:22:55.943Z,101316.47
2023-03-29T11:24:31.263Z,101314.06
2023-03-29T11:25:40.608Z,101317.38
2023-03-29T11:27:17.047Z,101315.00
2023-03-29T11:28:35.263Z,101321.84
2023-03-29T11:29:49.007Z,101314.41
2023-03-29T11:30:59.335Z,101311.16
2023-03-29T11:32:07.236Z,101307.00
2023-03-29T11:33:20.800Z,101296.78
2023-03-29T11:34:37.223Z,101303.59
2023-03-29T11:36:14.579Z,101292.81
2023-03-29T11:37:25.522Z,101297.34
2023-03-29T11:38:32.258Z,101283.47
2023-03-29T11:40:09.126Z,101284.72
2023-03-29T11:41:14.735Z,101290.84
2023-03-29T11:42:24.033Z,101295.66
2023-03-29T11:43:35.934Z,101297.06
2023-03-29T11:44:40.734Z,101293.91
2023-03-29T11:45:49.064Z,101291.59
2023-03-29T11:46:57.037Z,101286.06
2023-03-29T11:48:02.301Z,101295.28
2023-03-29T11:49:21.433Z,101285.91
2023-03-29T11:50:45.446Z,101296.59
2023-03-29T11:51:54.366Z,101291.50
2023-03-29T11:53:05.013Z,101285.97
2023-03-29T11:54:28.377Z,101278.56
2023-03-29T11:55:36.530Z,101297.16
2023-03-29T11:56:44.259Z,101283.94
2023-03-29T11:58:08.592Z,101299.88
2023-03-29T11:59:15.954Z,101300.97
2023-03-29T12:00:21.431Z,101302.03
2023-03-29T12:01:33.392Z,101296.78
2023-03-29T12:02:41.149Z,101293.34
2023-03-29T12:03:47.260Z,101297.66
2023-03-29T12:04:52.125Z,101292.09
2023-03-29T12:05:59.986Z,101298.28
2023-03-29T12:07:15.192Z,101294.34
2023-03-29T12:08:31.266Z,101296.66
2023-03-29T12:09:49.934Z,101287.19
2023-03-29T12:11:02.197Z,101290.97
2023-03-29T12:12:23.298Z,101287.91
2023-03-29T12:13:30.461Z,101291.03
2023-03-29T12:15:01.152Z,101279.00
2023-03-29T12:16:18.182Z,101279.63
2023-03-29T12:17:27.044Z,101279.00
2023-03-29T12:18:42.038Z,101286.53
2023-03-29T12:19:50.401Z,101285.56
2023-03-29T12:20:58.581Z,101275.34
2023-03-29T12:22:01.344Z,101274.88
2023-03-29T12:23:03.010Z,101276.53
2023-03-29T12:24:04.851Z,101273.28
2023-03-29T12:25:12.691Z,101277.22
2023-03-29T12:26:40.488Z,101276.63
2023-03-29T12:28:01.750Z,101281.25
2023-03-29T12:29:11.966Z,101281.06
2023-03-29T12:30:29.129Z,101289.09
2023-03-29T12:31:54.987Z,101276.13
2023-03-29T12:33:16.107Z,101278.41
2023-03-29T12:34:26.444Z,101273.31